Time;durP1;ratioP1;P1;durP2;ratioP2;P2;SDS_P1;SDS_P2;PMS_P1;PMS_P2;Temp;Humidity;BMP_temperature;BMP_pressure;BME280_temperature;BME280_humidity;BME280_pressure;Samples;Min_cycle;Max_cycle;Signal;HPM_P1;HPM_P2
2022/04/25 04:54:17;;;;;;;12.25;9.07;;;;;;;5.39;100.00;97985.81;5190120;27;20361;-63
2022/04/25 04:56:45;;;;;;;16.83;9.90;;;;;;;5.95;100.00;98009.03;5168964;27;20436;-63
2022/04/25 04:59:11;;;;;;;16.98;10.15;;;;;;;6.39;100.00;98030.34;5169075;27;20481;-63
2022/04/25 05:01:38;;;;;;;16.58;10.85;;;;;;;6.67;100.00;98034.69;5169039;27;20059;-64
2022/04/25 05:04:05;;;;;;;15.73;11.10;;;;;;;6.92;100.00;98054.91;5168934;27;20050;-64
2022/04/25 05:06:31;;;;;;;11.57;8.85;;;;;;;7.13;100.00;98078.16;5168851;27;20046;-66
2022/04/25 05:08:57;;;;;;;14.20;8.20;;;;;;;7.25;100.00;98078.72;5169082;27;20065;-68
2022/04/25 05:11:24;;;;;;;11.63;8.82;;;;;;;7.30;100.00;98105.66;5169012;27;20497;-64
2022/04/25 05:13:51;;;;;;;11.90;8.00;;;;;;;7.39;100.00;98131.88;5168556;27;20050;-62
2022/04/25 05:16:17;;;;;;;10.90;7.55;;;;;;;7.45;100.00;98144.81;5169332;27;20095;-63
2022/04/25 05:18:44;;;;;;;11.52;7.38;;;;;;;7.51;100.00;98170.63;5168885;27;20076;-63
2022/04/25 05:21:12;;;;;;;10.73;8.20;;;;;;;7.57;100.00;98183.94;5168818;27;20053;-65
2022/04/25 05:23:38;;;;;;;10.75;7.63;;;;;;;7.59;100.00;98200.72;5168016;27;20054;-64
2022/04/25 05:26:05;;;;;;;13.57;8.23;;;;;;;7.65;100.00;98218.34;5167184;27;20053;-66
2022/04/25 05:28:32;;;;;;;12.00;7.97;;;;;;;7.73;100.00;98237.19;5168584;27;20145;-63
2022/04/25 05:30:58;;;;;;;13.43;8.80;;;;;;;7.77;100.00;98253.59;5168547;27;20051;-64
2022/04/25 05:33:24;;;;;;;10.25;7.88;;;;;;;7.81;100.00;98276.25;5168704;27;20054;-66
2022/04/25 05:35:51;;;;;;;12.68;8.50;;;;;;;7.84;100.00;98285.66;5168283;27;20046;-68
2022/04/25 05:38:18;;;;;;;12.45;9.07;;;;;;;7.87;100.00;98284.91;5168768;27;20078;-64
2022/04/25 05:40:48;;;;;;;13.00;7.70;;;;;;;7.85;100.00;98295.41;5168428;27;20046;-63
2022/04/25 05:43:14;;;;;;;13.57;8.05;;;;;;;7.95;100.00;98305.69;5168231;27;20054;-63
2022/04/25 05:45:45;;;;;;;11.10;7.90;;;;;;;8.05;100.00;98315.19;5168617;27;20046;-69
2022/04/25 05:53:37;;;;;;;14.50;8.15;;;;;;;8.13;100.00;98350.41;5167948;27;20053;-61
2022/04/25 05:56:04;;;;;;;9.55;7.38;;;;;;;8.11;100.00;98371.84;5167971;27;20046;-60
2022/04/25 05:58:30;;;;;;;12.30;7.57;;;;;;;8.08;100.00;98380.75;5167899;27;20053;-61
2022/04/25 06:00:57;;;;;;;9.70;7.95;;;;;;;8.11;100.00;98381.97;5167864;27;20050;-61
2022/04/25 06:03:23;;;;;;;11.82;7.15;;;;;;;8.09;100.00;98385.03;5167453;27;20469;-66
2022/04/25 06:05:50;;;;;;;10.60;7.70;;;;;;;8.06;100.00;98385.00;5153867;27;20138;-66
2022/04/25 06:08:16;;;;;;;12.23;7.88;;;;;;;8.00;100.00;98393.50;5154208;27;20057;-66
2022/04/25 06:10:42;;;;;;;11.18;7.22;;;;;;;7.99;100.00;98393.88;5153640;27;20043;-67
2022/04/25 06:13:08;;;;;;;8.43;7.38;;;;;;;7.90;100.00;98393.34;5153642;27;20047;-63
2022/04/25 06:15:35;;;;;;;10.38;7.00;;;;;;;7.78;100.00;98383.41;5153494;27;20099;-63
2022/04/25 06:18:02;;;;;;;8.52;6.95;;;;;;;7.71;100.00;98389.53;5153524;27;20047;-62
2022/04/25 06:20:30;;;;;;;11.98;7.93;;;;;;;7.77;100.00;98384.56;5153603;27;20098;-56
2022/04/25 06:22:58;;;;;;;10.57;7.65;;;;;;;7.64;100.00;98367.59;5153193;27;20062;-51
2022/04/25 06:25:25;;;;;;;12.65;8.35;;;;;;;7.57;100.00;98358.50;5153701;27;20057;-53
2022/04/25 06:27:51;;;;;;;22.42;8.55;;;;;;;7.46;100.00;98359.13;5153559;27;20046;-52
2022/04/25 06:30:18;;;;;;;18.67;8.68;;;;;;;7.47;100.00;98351.72;5153355;27;20050;-55
2022/04/25 06:32:44;;;;;;;13.48;8.48;;;;;;;7.53;100.00;98352.97;5153267;27;20046;-52
2022/04/25 06:35:11;;;;;;;13.38;8.63;;;;;;;7.46;100.00;98341.94;5153269;27;20042;-56
2022/04/25 06:37:37;;;;;;;11.88;8.57;;;;;;;7.44;100.00;98350.50;5153220;27;20141;-52
2022/04/25 06:40:05;;;;;;;16.75;7.93;;;;;;;7.47;100.00;98344.31;5153332;27;20043;-54
2022/04/25 06:42:31;;;;;;;10.63;8.55;;;;;;;7.52;100.00;98326.84;5153056;27;20053;-57
2022/04/25 06:44:57;;;;;;;16.27;9.13;;;;;;;7.66;100.00;98324.34;5153051;27;20107;-54
2022/04/25 06:47:23;;;;;;;13.10;8.50;;;;;;;7.79;100.00;98309.34;5153002;27;20046;-52
2022/04/25 06:49:49;;;;;;;14.57;9.43;;;;;;;7.97;100.00;98306.13;5152870;27;20100;-52
2022/04/25 06:52:16;;;;;;;13.07;8.80;;;;;;;8.10;100.00;98290.31;5152701;27;20417;-53
2022/04/25 06:54:44;;;;;;;12.82;8.00;;;;;;;8.16;100.00;98311.47;5153092;27;20050;-52
2022/04/25 06:57:10;;;;;;;10.75;7.88;;;;;;;8.18;100.00;98325.50;5153084;27;20471;-52
2022/04/25 06:59:36;;;;;;;12.30;8.05;;;;;;;8.19;100.00;98339.94;5152872;27;20127;-52
2022/04/25 07:02:03;;;;;;;9.30;7.10;;;;;;;8.36;100.00;98341.34;5152651;27;20397;-56
2022/04/25 07:04:29;;;;;;;9.57;7.72;;;;;;;8.68;100.00;98347.25;5153006;27;20047;-54
2022/04/25 07:06:55;;;;;;;13.88;8.30;;;;;;;8.74;100.00;98367.63;5153318;27;20049;-50
2022/04/25 07:09:22;;;;;;;10.18;7.47;;;;;;;8.84;100.00;98379.84;5152841;27;20051;-51
2022/04/25 07:11:48;;;;;;;13.25;8.15;;;;;;;8.99;100.00;98381.59;5152971;27;20058;-53
2022/04/25 07:14:16;;;;;;;10.02;7.45;;;;;;;9.26;100.00;98395.94;5152909;27;20053;-52
2022/04/25 07:16:45;;;;;;;10.85;7.20;;;;;;;9.64;100.00;98397.50;5151480;27;20057;-53
2022/04/25 07:19:11;;;;;;;9.63;7.53;;;;;;;10.49;100.00;98407.56;5152814;27;20098;-52
2022/04/25 07:29:51;;;;;;;;;;;;;;;12.02;100.00;98388.00;5153229;27;20049;-57
2022/04/25 07:32:18;;;;;;;8.65;5.55;;;;;;;12.24;100.00;98336.56;5152335;27;19972;-54
2022/04/25 07:34:47;;;;;;;5.47;4.82;;;;;;;12.01;100.00;98216.13;5152398;27;20047;-55
2022/04/25 07:37:15;;;;;;;8.52;4.85;;;;;;;12.20;100.00;98217.66;5151727;27;20047;-57
2022/04/25 07:39:42;;;;;;;7.63;4.22;;;;;;;11.80;100.00;98153.03;5152545;27;20190;-56
2022/04/25 07:42:08;;;;;;;7.75;4.63;;;;;;;11.29;100.00;98137.81;5152506;27;20085;-57
2022/04/25 07:44:35;;;;;;;5.05;3.90;;;;;;;11.11;100.00;98231.13;5152457;27;20046;-56
2022/04/25 07:47:01;;;;;;;5.40;4.82;;;;;;;10.90;100.00;98270.28;5152294;27;20057;-54
2022/04/25 07:49:28;;;;;;;5.88;5.28;;;;;;;10.89;100.00;98314.53;5152529;27;20054;-56
2022/04/25 07:51:55;;;;;;;8.13;5.65;;;;;;;10.78;100.00;98347.41;5152437;27;20047;-56
2022/04/25 07:54:22;;;;;;;9.88;5.85;;;;;;;10.71;100.00;98375.56;5152222;27;20429;-56
2022/04/25 07:56:49;;;;;;;9.13;5.28;;;;;;;10.76;100.00;98405.38;5152300;27;20050;-53
2022/04/25 07:59:15;;;;;;;6.60;4.90;;;;;;;10.83;100.00;98418.31;5152503;27;20046;-58
2022/04/25 08:01:41;;;;;;;6.55;5.05;;;;;;;10.77;100.00;98408.91;5152197;27;20055;-56
2022/04/25 08:04:08;;;;;;;6.40;5.30;;;;;;;10.64;100.00;98415.88;5152253;27;20902;-54
2022/04/25 08:06:34;;;;;;;5.65;5.07;;;;;;;10.64;100.00;98433.09;5150207;27;20042;-58
2022/04/25 08:09:03;;;;;;;8.50;5.25;;;;;;;10.62;100.00;98443.66;5151786;27;20051;-54
2022/04/25 08:11:29;;;;;;;10.75;5.60;;;;;;;10.63;100.00;98433.47;5152554;27;20801;-57
2022/04/25 08:19:25;;;;;;;7.57;5.22;;;;;;;11.14;100.00;98410.59;5151872;27;20045;-54
2022/04/25 08:21:52;;;;;;;7.65;4.63;;;;;;;11.20;100.00;98418.09;5151754;27;20046;-52
2022/04/25 08:24:18;;;;;;;6.00;5.35;;;;;;;11.18;100.00;98414.94;5151805;27;20149;-55
2022/04/25 08:26:45;;;;;;;7.40;5.47;;;;;;;11.17;100.00;98418.06;5151403;27;20426;-56
2022/04/25 08:29:12;;;;;;;8.98;6.57;;;;;;;10.99;100.00;98407.78;5151674;27;20099;-55
2022/04/25 08:31:38;;;;;;;7.40;5.28;;;;;;;10.82;100.00;98425.75;5151746;27;20043;-56
2022/04/25 08:34:08;;;;;;;5.60;4.80;;;;;;;10.84;100.00;98437.13;5151330;27;20077;-53
2022/04/25 08:36:35;;;;;;;7.13;5.20;;;;;;;10.84;100.00;98428.13;5151410;27;20047;-53
2022/04/25 08:39:01;;;;;;;7.72;5.38;;;;;;;10.98;100.00;98436.41;5151331;27;20506;-54
2022/04/25 08:41:29;;;;;;;5.97;5.03;;;;;;;10.99;100.00;98440.72;5151577;27;20042;-54
2022/04/25 08:43:56;;;;;;;6.97;4.82;;;;;;;10.91;100.00;98424.63;5151189;27;20050;-53
2022/04/25 08:46:24;;;;;;;11.38;5.10;;;;;;;11.00;100.00;98425.84;5150973;27;20046;-52
2022/04/25 08:48:50;;;;;;;6.30;5.05;;;;;;;11.14;100.00;98427.06;5150928;27;20133;-56
2022/04/25 08:51:16;;;;;;;7.43;5.30;;;;;;;11.09;100.00;98411.75;5151436;27;20047;-56
2022/04/25 08:53:44;;;;;;;7.82;5.63;;;;;;;10.95;100.00;98415.22;5150862;27;20135;-53
2022/04/25 08:56:12;;;;;;;6.55;5.25;;;;;;;11.02;100.00;98428.19;5151484;27;20474;-55
2022/04/25 08:58:41;;;;;;;5.18;4.68;;;;;;;11.11;100.00;98425.09;5150933;27;20055;-55
2022/04/25 09:01:09;;;;;;;5.82;4.90;;;;;;;11.23;100.00;98419.25;5151352;27;20068;-55
2022/04/25 09:03:36;;;;;;;6.85;5.00;;;;;;;11.20;100.00;98420.03;5150994;27;20051;-56
2022/04/25 09:06:03;;;;;;;7.20;5.25;;;;;;;11.13;100.00;98437.25;5151143;27;20828;-56
2022/04/25 09:08:29;;;;;;;15.52;6.82;;;;;;;11.22;100.00;98448.63;5150853;27;20055;-54
2022/04/25 09:12:09;;;;;;;5.78;5.13;;;;;;;11.22;100.00;98437.66;5150951;27;20046;-56
2022/04/25 09:13:46;;;;;;;7.10;5.10;;;;;;;11.20;100.00;98407.09;5150879;27;20054;-53
2022/04/25 09:16:12;;;;;;;6.70;5.20;;;;;;;11.10;100.00;98418.84;5150974;27;20069;-55
2022/04/25 09:18:39;;;;;;;5.60;4.75;;;;;;;10.97;100.00;98428.56;5150636;27;20100;-53
2022/04/25 09:21:06;;;;;;;8.45;5.22;;;;;;;10.95;100.00;98422.69;5150747;27;20077;-54
2022/04/25 09:23:32;;;;;;;6.13;5.13;;;;;;;10.97;100.00;98418.38;5150891;27;20073;-56
2022/04/25 09:26:14;;;;;;;6.28;5.03;;;;;;;10.98;100.00;98430.91;5150733;27;20070;-54
2022/04/25 09:28:48;;;;;;;7.03;4.80;;;;;;;10.94;100.00;98438.34;5151056;27;20100;-56
2022/04/25 09:31:15;;;;;;;6.72;5.50;;;;;;;10.86;100.00;98438.69;5150486;27;20046;-53
2022/04/25 09:33:43;;;;;;;6.38;5.20;;;;;;;10.88;100.00;98441.84;5150763;27;20047;-55
2022/04/25 09:36:09;;;;;;;5.40;4.90;;;;;;;11.04;100.00;98475.22;5150708;27;20054;-56
2022/04/25 09:38:36;;;;;;;5.28;4.78;;;;;;;11.11;100.00;98463.50;5150519;27;20050;-56
2022/04/25 09:41:05;;;;;;;5.32;4.82;;;;;;;11.11;100.00;98453.31;5154449;27;20057;-58
2022/04/25 09:43:32;;;;;;;6.32;4.95;;;;;;;11.18;100.00;98458.81;5154178;27;20065;-54
2022/04/25 09:46:02;;;;;;;6.38;5.38;;;;;;;11.19;100.00;98467.84;5154345;27;20065;-55
2022/04/25 09:48:29;;;;;;;6.32;5.13;;;;;;;11.32;100.00;98469.84;5154110;27;20055;-57
2022/04/25 09:50:59;;;;;;;6.25;5.32;;;;;;;11.49;100.00;98478.53;5154396;27;20047;-56
2022/04/25 09:53:40;;;;;;;6.10;5.30;;;;;;;11.41;100.00;98464.00;5153956;27;20418;-53
2022/04/25 09:56:11;;;;;;;7.80;5.65;;;;;;;11.26;100.00;98446.72;5154004;27;20043;-56
2022/04/25 09:58:38;;;;;;;6.88;5.10;;;;;;;11.32;100.00;98447.09;5153977;27;20047;-57
2022/04/25 10:01:11;;;;;;;5.22;4.72;;;;;;;11.42;100.00;98437.34;5153648;27;20099;-56
2022/04/25 10:03:38;;;;;;;6.33;5.20;;;;;;;11.53;100.00;98436.22;5153894;27;20057;-55
2022/04/25 10:06:05;;;;;;;7.93;5.65;;;;;;;11.46;100.00;98419.72;5153658;27;20054;-54
2022/04/25 10:08:34;;;;;;;6.72;5.80;;;;;;;11.45;100.00;98433.81;5153803;27;20047;-56
2022/04/25 10:11:03;;;;;;;6.95;5.07;;;;;;;11.45;100.00;98420.88;5153513;27;20085;-57
2022/04/25 10:13:31;;;;;;;5.80;5.20;;;;;;;11.54;100.00;98423.25;5153424;27;20051;-56
2022/04/25 10:15:58;;;;;;;7.60;5.85;;;;;;;11.53;100.00;98405.22;5153373;27;20047;-55
2022/04/25 10:18:26;;;;;;;6.65;5.45;;;;;;;11.67;100.00;98421.72;5153679;27;20050;-57
2022/04/25 10:20:53;;;;;;;6.75;5.93;;;;;;;11.82;100.00;98416.22;5153233;27;20068;-58
2022/04/25 10:23:20;;;;;;;6.47;5.82;;;;;;;11.70;100.00;98370.75;5153344;27;20071;-61
2022/04/25 10:25:48;;;;;;;9.27;6.00;;;;;;;11.55;100.00;98367.97;5153838;27;20046;-60
2022/04/25 10:28:19;;;;;;;5.60;5.05;;;;;;;11.57;100.00;98370.34;5153744;27;20051;-60
2022/04/25 10:30:48;;;;;;;7.53;5.50;;;;;;;11.79;100.00;98404.06;5153934;27;20110;-54
2022/04/25 10:33:16;;;;;;;14.77;6.70;;;;;;;11.69;100.00;98399.34;5153340;27;20050;-54
2022/04/25 10:35:44;;;;;;;8.30;5.93;;;;;;;11.60;100.00;98380.53;5153705;27;20051;-57
2022/04/25 10:38:50;;;;;;;9.43;6.97;;;;;;;11.54;100.00;98396.59;5153565;27;20506;-57
2022/04/25 10:44:49;;;;;;;7.18;6.47;;;;;;;11.42;100.00;98398.91;5153205;27;20053;-58
2022/04/25 10:47:18;;;;;;;7.35;6.50;;;;;;;11.41;100.00;98422.84;5153280;27;20053;-56
2022/04/25 10:49:46;;;;;;;7.88;6.97;;;;;;;11.38;100.00;98431.06;5153337;27;20046;-60
2022/04/25 10:52:56;;;;;;;10.68;6.93;;;;;;;11.35;100.00;98443.59;5153090;27;20497;-57
2022/04/25 10:55:43;;;;;;;8.20;7.20;;;;;;;11.34;100.00;98468.69;5153311;27;20047;-56
2022/04/25 10:58:22;;;;;;;8.88;7.40;;;;;;;11.53;100.00;98482.88;5153145;27;20425;-57
2022/04/25 11:00:51;;;;;;;9.50;7.03;;;;;;;11.69;100.00;98487.22;5153154;27;20115;-58
2022/04/25 11:03:19;;;;;;;7.75;6.05;;;;;;;11.76;100.00;98481.72;5152783;27;20050;-56
2022/04/25 11:05:46;;;;;;;9.18;5.80;;;;;;;11.90;100.00;98472.78;5153164;27;20098;-57
2022/04/25 11:08:32;;;;;;;8.27;6.50;;;;;;;11.92;100.00;98443.72;5152764;27;20565;-56
2022/04/25 11:11:01;;;;;;;7.50;6.07;;;;;;;11.91;100.00;98441.38;5152563;27;20142;-63
2022/04/25 11:13:30;;;;;;;11.20;6.05;;;;;;;11.93;100.00;98423.34;5152702;27;20046;-59
2022/04/25 11:15:58;;;;;;;8.50;6.35;;;;;;;11.85;100.00;98440.19;5152981;27;20057;-57
2022/04/25 11:18:30;;;;;;;8.93;6.35;;;;;;;11.67;100.00;98429.94;5152874;27;20051;-55
2022/04/25 11:20:57;;;;;;;8.70;6.25;;;;;;;11.70;100.00;98459.38;5152667;27;20046;-56
2022/04/25 11:23:26;;;;;;;10.52;5.78;;;;;;;11.67;100.00;98478.59;5152684;27;20083;-56
2022/04/25 11:25:55;;;;;;;10.90;5.85;;;;;;;11.66;100.00;98474.25;5152778;27;20051;-57
2022/04/25 11:28:22;;;;;;;8.75;6.43;;;;;;;11.58;100.00;98470.72;5152599;27;20134;-55
2022/04/25 11:31:19;;;;;;;8.20;6.28;;;;;;;11.61;100.00;98485.63;5152476;27;20047;-56
2022/04/25 11:33:47;;;;;;;8.45;6.18;;;;;;;11.62;100.00;98496.22;5150355;27;20082;-56
2022/04/25 11:36:14;;;;;;;7.13;6.43;;;;;;;11.69;100.00;98503.69;5152657;27;20098;-54
2022/04/25 11:41:28;;;;;;;7.90;6.63;;;;;;;11.81;100.00;98481.34;5152461;27;20049;-56
2022/04/25 11:43:54;;;;;;;6.72;6.03;;;;;;;11.85;100.00;98478.66;5152566;27;20055;-54
2022/04/25 11:46:21;;;;;;;8.00;5.63;;;;;;;11.97;100.00;98450.81;5152187;27;20057;-54
2022/04/25 11:48:48;;;;;;;10.50;6.05;;;;;;;11.97;100.00;98448.84;5152477;27;20055;-59
2022/04/25 11:51:22;;;;;;;8.57;6.90;;;;;;;11.97;100.00;98440.59;5152286;27;20053;-57
2022/04/25 11:53:48;;;;;;;9.30;6.50;;;;;;;11.97;100.00;98453.56;5149994;27;20506;-55
2022/04/25 11:56:16;;;;;;;9.20;6.53;;;;;;;11.95;100.00;98478.66;5152056;27;20531;-59
2022/04/25 11:58:42;;;;;;;7.97;6.55;;;;;;;12.13;100.00;98472.38;5152321;27;20050;-58
2022/04/25 12:01:09;;;;;;;8.65;7.18;;;;;;;12.10;100.00;98460.25;5151941;27;20147;-59
2022/04/25 12:03:36;;;;;;;7.38;6.43;;;;;;;12.14;100.00;98436.28;5151390;27;20050;-56
2022/04/25 12:06:10;;;;;;;6.95;6.25;;;;;;;12.18;100.00;98428.03;5151959;27;20057;-56
2022/04/25 12:17:02;;;;;;;9.75;7.25;;;;;;;12.14;100.00;98436.28;5151879;27;20501;-56
2022/04/25 12:19:28;;;;;;;9.82;6.97;;;;;;;12.12;100.00;98446.88;5151696;27;20057;-57
2022/04/25 12:22:00;;;;;;;11.75;7.68;;;;;;;12.07;100.00;98457.50;5151937;27;20065;-54
2022/04/25 12:24:26;;;;;;;13.27;7.68;;;;;;;12.11;100.00;98466.50;5151685;27;20054;-55
2022/04/25 12:26:52;;;;;;;12.70;7.05;;;;;;;12.01;100.00;98488.09;5151531;27;20050;-58
2022/04/25 12:29:18;;;;;;;11.27;6.82;;;;;;;11.95;100.00;98497.09;5151473;27;20051;-57
2022/04/25 12:31:47;;;;;;;8.73;7.25;;;;;;;12.00;100.00;98496.72;5151769;27;20409;-57
2022/04/25 12:34:16;;;;;;;8.30;7.13;;;;;;;12.04;100.00;98510.47;5151828;27;20077;-57
2022/04/25 12:36:53;;;;;;;7.82;6.90;;;;;;;11.92;100.00;98500.63;5151540;27;20141;-55
2022/04/25 12:39:19;;;;;;;7.65;6.88;;;;;;;11.82;100.00;98501.38;5151654;27;20110;-56
2022/04/25 12:41:53;;;;;;;9.10;7.13;;;;;;;11.83;100.00;98511.97;5151694;27;20043;-56
2022/04/25 12:44:20;;;;;;;10.10;7.10;;;;;;;11.97;100.00;98530.47;5151444;27;20047;-55
2022/04/25 12:46:48;;;;;;;11.50;7.18;;;;;;;12.00;100.00;98521.47;5151796;27;20069;-56
2022/04/25 12:49:17;;;;;;;7.53;5.68;;;;;;;12.01;100.00;98518.31;5151318;27;20050;-58
2022/04/25 12:51:46;;;;;;;8.93;7.45;;;;;;;11.98;100.00;98510.84;5151334;27;20058;-58
2022/04/25 12:54:26;;;;;;;9.52;7.78;;;;;;;11.88;100.00;98517.09;5151103;27;20466;-58
2022/04/25 12:56:55;;;;;;;11.50;7.10;;;;;;;11.87;100.00;98540.25;5151472;27;20133;-58
2022/04/25 12:59:29;;;;;;;7.78;7.00;;;;;;;11.98;100.00;98540.28;5151448;27;20471;-57
2022/04/25 13:02:01;;;;;;;7.47;6.18;;;;;;;11.94;100.00;98529.28;5151467;27;20399;-54
2022/04/25 13:04:28;;;;;;;7.70;6.28;;;;;;;11.99;100.00;98528.09;5151154;27;20115;-53
2022/04/25 13:06:55;;;;;;;8.75;6.75;;;;;;;12.05;100.00;98531.28;5151074;27;20069;-56
2022/04/25 13:09:21;;;;;;;7.65;6.53;;;;;;;12.10;100.00;98528.94;5151207;27;20051;-54
2022/04/25 13:11:47;;;;;;;8.48;7.13;;;;;;;12.11;100.00;98518.72;5151374;27;20055;-54
2022/04/25 13:14:14;;;;;;;8.18;7.07;;;;;;;12.14;100.00;98520.69;5152162;27;20050;-54
2022/04/25 13:16:41;;;;;;;10.05;7.50;;;;;;;12.22;100.00;98520.28;5154899;27;20165;-54
2022/04/25 13:19:07;;;;;;;10.90;6.90;;;;;;;12.07;100.00;98509.69;5152996;27;20054;-56
2022/04/25 13:21:38;;;;;;;8.57;7.53;;;;;;;11.87;100.00;98496.31;5154708;27;20141;-56
2022/04/25 13:24:05;;;;;;;9.20;6.45;;;;;;;11.86;100.00;98515.91;5154713;27;20521;-53
2022/04/25 13:26:31;;;;;;;11.10;6.45;;;;;;;12.00;100.00;98521.47;5154576;27;20047;-60
2022/04/25 13:28:57;;;;;;;10.05;7.45;;;;;;;12.15;100.00;98545.00;5154785;27;20046;-52
2022/04/25 13:31:23;;;;;;;7.97;7.18;;;;;;;12.27;100.00;98521.09;5154625;27;20051;-56
2022/04/25 13:33:49;;;;;;;12.35;6.32;;;;;;;12.47;100.00;98517.56;5154781;27;20055;-58
2022/04/25 13:36:15;;;;;;;8.85;7.10;;;;;;;12.57;100.00;98491.25;5154415;27;20059;-55
2022/04/25 13:38:42;;;;;;;9.18;6.70;;;;;;;12.65;100.00;98465.28;5154734;27;20524;-52
2022/04/25 13:41:08;;;;;;;7.60;6.80;;;;;;;12.75;100.00;98427.94;5154300;27;20062;-56
2022/04/25 13:43:34;;;;;;;9.95;6.75;;;;;;;12.63;100.00;98396.19;5154145;27;20540;-55
2022/04/25 13:46:01;;;;;;;10.32;7.40;;;;;;;12.54;100.00;98428.00;5154378;27;20057;-56
2022/04/25 13:48:29;;;;;;;8.65;6.82;;;;;;;12.59;100.00;98446.84;5154161;27;20047;-57
2022/04/25 13:50:55;;;;;;;10.73;8.25;;;;;;;12.53;100.00;98435.47;5154095;27;20047;-56
2022/04/25 13:53:21;;;;;;;9.80;7.45;;;;;;;12.26;100.00;98432.34;5153897;27;20067;-53
2022/04/25 13:55:48;;;;;;;12.20;7.63;;;;;;;12.12;100.00;98466.13;5153999;27;20047;-57
2022/04/25 13:58:15;;;;;;;8.88;7.78;;;;;;;12.24;100.00;98493.22;5153964;27;20051;-56
2022/04/25 14:00:42;;;;;;;8.00;6.90;;;;;;;12.34;100.00;98485.38;5153628;27;20047;-56
2022/04/25 14:03:09;;;;;;;10.75;7.60;;;;;;;12.49;100.00;98503.41;5153662;27;20050;-55
2022/04/25 14:05:36;;;;;;;10.18;8.55;;;;;;;12.65;100.00;98478.25;5154194;27;20043;-56
2022/04/25 14:08:03;;;;;;;9.73;7.30;;;;;;;12.69;100.00;98457.03;5153586;27;20047;-58
2022/04/25 14:10:29;;;;;;;8.75;7.28;;;;;;;12.75;100.00;98440.91;5153552;27;20051;-55
2022/04/25 14:12:57;;;;;;;9.65;7.97;;;;;;;12.66;100.00;98425.63;5153588;27;20057;-56
2022/04/25 14:15:23;;;;;;;9.13;7.57;;;;;;;12.68;100.00;98447.22;5153650;27;20043;-56
2022/04/25 14:17:49;;;;;;;7.43;6.60;;;;;;;12.87;100.00;98462.50;5153638;27;20489;-55
2022/04/25 14:20:16;;;;;;;9.38;7.85;;;;;;;12.80;100.00;98433.06;5153711;27;20523;-55
2022/04/25 14:22:42;;;;;;;10.90;8.32;;;;;;;12.79;100.00;98422.44;5153665;27;20050;-57
2022/04/25 14:25:09;;;;;;;9.68;7.60;;;;;;;12.63;100.00;98434.69;5153131;27;20046;-56
2022/04/25 14:27:38;;;;;;;10.20;9.10;;;;;;;12.51;100.00;98445.28;5153680;27;20200;-56
2022/04/25 14:30:06;;;;;;;12.93;8.77;;;;;;;12.52;100.00;98460.59;5153600;27;20421;-55
2022/04/25 14:32:32;;;;;;;10.68;8.40;;;;;;;12.58;100.00;98470.03;5153963;27;20047;-56
2022/04/25 14:34:59;;;;;;;10.05;7.55;;;;;;;12.66;100.00;98464.13;5153226;27;20199;-56
2022/04/25 14:37:25;;;;;;;9.13;7.43;;;;;;;12.78;100.00;98464.88;5153496;27;20050;-56
2022/04/25 14:39:51;;;;;;;12.93;7.85;;;;;;;12.75;100.00;98446.41;5153344;27;20047;-57
2022/04/25 14:42:17;;;;;;;10.10;8.43;;;;;;;12.58;100.00;98437.81;5153496;27;20050;-53
2022/04/25 14:44:43;;;;;;;11.85;8.13;;;;;;;12.58;100.00;98451.56;5153476;27;20516;-55
2022/04/25 14:47:10;;;;;;;9.82;7.97;;;;;;;12.54;100.00;98472.00;5153127;27;20058;-57
2022/04/25 14:55:05;;;;;;;9.48;7.82;;;;;;;12.34;100.00;98521.09;5153224;27;20167;-57
2022/04/25 14:57:32;;;;;;;10.40;8.65;;;;;;;12.38;100.00;98535.63;5152855;27;20130;-58
2022/04/25 14:59:58;;;;;;;9.18;7.90;;;;;;;12.48;100.00;98527.38;5152938;27;20057;-54
2022/04/25 15:02:25;;;;;;;8.55;7.30;;;;;;;12.34;100.00;98518.34;5153097;27;20053;-55
2022/04/25 15:04:51;;;;;;;10.52;8.23;;;;;;;12.25;100.00;98532.47;5152894;27;20062;-53
2022/04/25 15:07:17;;;;;;;13.13;8.02;;;;;;;12.19;100.00;98545.78;5153473;27;20051;-56
2022/04/25 15:09:44;;;;;;;11.88;8.32;;;;;;;12.16;100.00;98571.34;5153011;27;20147;-58
2022/04/25 15:12:11;;;;;;;10.38;8.20;;;;;;;12.11;100.00;98563.47;5153143;27;20823;-55
2022/04/25 15:14:37;;;;;;;9.50;8.35;;;;;;;11.99;100.00;98569.31;5152890;27;20057;-57
2022/04/25 15:17:03;;;;;;;9.00;7.40;;;;;;;12.02;100.00;98582.28;5153083;27;20395;-57
2022/04/25 15:19:30;;;;;;;11.73;7.45;;;;;;;12.09;100.00;98585.03;5152623;27;20458;-57
2022/04/25 15:21:58;;;;;;;12.60;7.90;;;;;;;12.11;100.00;98585.44;5152722;27;20050;-58
2022/04/25 15:24:24;;;;;;;11.05;8.85;;;;;;;12.09;100.00;98584.25;5152569;27;20046;-57
2022/04/25 15:26:50;;;;;;;9.15;7.32;;;;;;;12.04;100.00;98590.94;5152566;27;20054;-57
2022/04/25 15:29:17;;;;;;;10.43;8.43;;;;;;;12.12;100.00;98592.50;5152816;27;20043;-54
2022/04/25 15:31:43;;;;;;;13.10;7.35;;;;;;;12.13;100.00;98591.34;5152334;27;20051;-57
2022/04/25 15:34:09;;;;;;;9.40;7.53;;;;;;;12.21;100.00;98589.38;5152454;27;20050;-56
2022/04/25 15:36:37;;;;;;;10.38;7.25;;;;;;;12.22;100.00;98578.00;5151567;27;20047;-56
2022/04/25 15:39:03;;;;;;;9.55;7.20;;;;;;;12.23;100.00;98590.59;5152363;27;20383;-53
2022/04/25 15:41:29;;;;;;;17.20;7.03;;;;;;;12.29;100.00;98584.69;5152417;27;20139;-57
2022/04/25 15:43:55;;;;;;;10.00;8.05;;;;;;;12.20;100.00;98591.34;5152352;27;20071;-57
2022/04/25 15:46:21;;;;;;;10.98;8.73;;;;;;;12.20;100.00;98585.88;5152198;27;20513;-54
2022/04/25 15:48:48;;;;;;;9.13;7.53;;;;;;;12.25;100.00;98588.22;5152369;27;20053;-57
2022/04/25 15:51:14;;;;;;;12.43;9.02;;;;;;;12.19;100.00;98583.50;5152180;27;20046;-54
2022/04/25 15:59:10;;;;;;;;;;;;;;;11.88;100.00;98587.72;5152594;27;20537;-53
2022/04/25 16:01:38;;;;;;;10.68;7.95;;;;;;;11.97;100.00;98599.16;5152287;27;19923;-57
2022/04/25 16:04:04;;;;;;;12.32;8.45;;;;;;;11.99;100.00;98592.06;5152011;27;20432;-54
2022/04/25 16:06:31;;;;;;;12.43;8.35;;;;;;;11.99;100.00;98591.28;5152243;27;20042;-55
2022/04/25 16:08:58;;;;;;;8.85;7.20;;;;;;;11.91;100.00;98593.25;5151901;27;20067;-53
2022/04/25 16:11:24;;;;;;;13.50;7.82;;;;;;;11.90;100.00;98599.91;5152029;27;20528;-54
2022/04/25 16:13:50;;;;;;;10.93;7.47;;;;;;;11.87;100.00;98599.91;5151795;27;20467;-54
2022/04/25 16:16:16;;;;;;;10.65;8.30;;;;;;;11.84;100.00;98606.13;5151993;27;20042;-56
2022/04/25 16:18:45;;;;;;;8.82;7.93;;;;;;;11.88;100.00;98607.75;5151817;27;20049;-57
2022/04/25 16:21:11;;;;;;;9.80;7.60;;;;;;;11.93;100.00;98604.63;5152016;27;20046;-55
2022/04/25 16:23:38;;;;;;;13.23;8.70;;;;;;;12.00;100.00;98612.13;5152117;27;20055;-57
2022/04/25 16:26:05;;;;;;;10.05;7.78;;;;;;;12.00;100.00;98614.84;5151598;27;20091;-58
2022/04/25 16:28:31;;;;;;;9.13;7.50;;;;;;;11.95;100.00;98617.97;5151853;27;20508;-57
2022/04/25 16:30:58;;;;;;;9.13;7.45;;;;;;;11.96;100.00;98620.34;5151632;27;20043;-56
2022/04/25 16:33:24;;;;;;;12.13;7.25;;;;;;;11.95;100.00;98627.00;5151813;27;20095;-55
2022/04/25 16:35:50;;;;;;;10.02;7.22;;;;;;;11.92;100.00;98624.22;5151711;27;20082;-54
2022/04/25 16:38:17;;;;;;;11.82;7.63;;;;;;;11.88;100.00;98623.44;5152196;27;20046;-54
2022/04/25 16:40:43;;;;;;;9.02;7.35;;;;;;;11.83;100.00;98624.56;5151726;27;20513;-54
2022/04/25 16:43:10;;;;;;;10.90;7.38;;;;;;;11.77;100.00;98626.13;5151592;27;20046;-55
2022/04/25 16:45:36;;;;;;;10.93;7.32;;;;;;;11.70;100.00;98613.16;5151359;27;20050;-54
2022/04/25 16:48:03;;;;;;;10.45;8.15;;;;;;;11.58;100.00;98616.22;5151098;27;20057;-54
2022/04/25 16:50:29;;;;;;;11.55;7.78;;;;;;;11.42;100.00;98615.72;5151638;27;20051;-57
2022/04/25 16:52:57;;;;;;;10.02;7.15;;;;;;;11.34;100.00;98619.63;5150956;27;20054;-57
2022/04/25 16:55:24;;;;;;;8.73;6.88;;;;;;;11.27;100.00;98606.66;5151538;27;20164;-55
2022/04/25 16:57:50;;;;;;;12.63;7.88;;;;;;;11.21;100.00;98608.16;5151276;27;20098;-53
2022/04/25 17:00:19;;;;;;;15.68;8.02;;;;;;;11.18;100.00;98609.72;5151500;27;20053;-57
2022/04/25 17:02:45;;;;;;;10.05;7.45;;;;;;;11.10;100.00;98613.59;5151165;27;20141;-55
2022/04/25 17:05:11;;;;;;;11.10;7.72;;;;;;;11.06;100.00;98608.09;5151303;27;20059;-54